Time;durP1;ratioP1;P1;durP2;ratioP2;P2;SDS_P1;SDS_P2;PMS_P1;PMS_P2;Temp;Humidity;BMP_temperature;BMP_pressure;BME280_temperature;BME280_humidity;BME280_pressure;Samples;Min_cycle;Max_cycle;Signal;HPM_P1;HPM_P2
2022/08/12 00:43:53;;;;;;;9.78;6.37;;;;;;;25.56;100.00;99802.74;1755195;81;21043;-66
2022/08/12 00:46:35;;;;;;;7.92;7.03;;;;;;;25.57;100.00;99800.13;1739306;81;21098;-65
2022/08/12 00:49:01;;;;;;;13.15;6.58;;;;;;;25.44;100.00;99795.00;1733909;82;21021;-65
2022/08/12 00:52:05;;;;;;;7.75;6.92;;;;;;;25.37;100.00;99797.27;1758805;81;21086;-64
2022/08/12 00:54:00;;;;;;;11.47;6.93;;;;;;;25.35;100.00;99803.15;1758899;80;21510;-63
2022/08/12 00:56:26;;;;;;;7.42;6.72;;;;;;;25.36;100.00;99800.52;1759125;81;21075;-65
2022/08/12 00:58:54;;;;;;;10.60;6.25;;;;;;;25.33;100.00;99805.58;1735842;82;21082;-65
2022/08/12 01:01:21;;;;;;;7.83;6.92;;;;;;;25.31;100.00;99809.41;1754639;81;21020;-65
2022/08/12 01:12:07;;;;;;;14.10;6.37;;;;;;;25.37;100.00;99831.70;1759130;81;21078;-64
2022/08/12 01:14:35;;;;;;;10.78;6.47;;;;;;;25.36;100.00;99837.16;1732789;82;21015;-65
2022/08/12 01:17:03;;;;;;;10.90;6.65;;;;;;;25.39;100.00;99829.28;1738092;81;21077;-65
2022/08/12 01:19:30;;;;;;;10.13;6.53;;;;;;;25.40;100.00;99823.85;1765021;81;21103;-65
2022/08/12 01:22:27;;;;;;;8.25;6.78;;;;;;;25.41;100.00;99819.80;1764964;81;21022;-65
2022/08/12 01:25:09;;;;;;;7.83;6.60;;;;;;;25.49;100.00;99825.57;1757672;81;21003;-65
2022/08/12 01:27:38;;;;;;;9.13;6.22;;;;;;;25.49;100.00;99817.71;1761542;81;21078;-65
2022/08/12 01:30:08;;;;;;;9.10;6.78;;;;;;;25.51;100.00;99814.69;1790842;80;21062;-67
2022/08/12 01:32:36;;;;;;;9.25;6.03;;;;;;;25.51;100.00;99820.32;1785289;80;22141;-66
2022/08/12 01:35:14;;;;;;;7.53;6.42;;;;;;;25.43;100.00;99820.20;1757958;81;21067;-65
2022/08/12 01:37:56;;;;;;;9.13;6.28;;;;;;;25.50;100.00;99813.69;1757547;81;21059;-65
2022/08/12 01:40:29;;;;;;;7.45;6.20;;;;;;;25.43;100.00;99813.14;1725626;82;21057;-65
2022/08/12 01:42:59;;;;;;;;;;;;;;;25.42;100.00;99815.75;1760657;81;21031;-65
2022/08/12 01:45:25;;;;;;;9.88;6.45;;;;;;;25.46;100.00;99813.72;1759187;81;21456;-66
2022/08/12 01:48:34;;;;;;;7.30;6.33;;;;;;;25.49;100.00;99812.88;1751713;81;21017;-64
2022/08/12 01:51:15;;;;;;;15.88;6.30;;;;;;;25.52;100.00;99807.03;1790831;80;21035;-66
2022/08/12 01:54:08;;;;;;;8.93;5.72;;;;;;;25.41;100.00;99807.11;1777457;80;21125;-65
2022/08/12 01:56:51;;;;;;;7.67;6.42;;;;;;;25.47;100.00;99803.25;1790882;80;21039;-66
2022/08/12 01:59:46;;;;;;;8.20;5.97;;;;;;;25.45;100.00;99800.84;1790995;80;21542;-65
2022/08/12 02:02:33;;;;;;;8.57;6.13;;;;;;;25.47;100.00;99810.30;1789639;80;21007;-65
2022/08/12 02:11:41;;;;;;;6.83;5.72;;;;;;;25.42;100.00;99805.89;1788893;80;21035;-64
2022/08/12 02:14:45;;;;;;;8.78;6.58;;;;;;;25.29;100.00;99798.55;1769876;81;21523;-64
2022/08/12 02:17:34;;;;;;;10.38;5.87;;;;;;;25.39;100.00;99801.09;1788234;80;21235;-64
2022/08/12 02:20:32;;;;;;;12.58;6.30;;;;;;;25.34;100.00;99805.16;1789210;80;21012;-65
2022/08/12 02:22:59;;;;;;;7.80;5.87;;;;;;;25.34;100.00;99806.57;1788550;80;21496;-65
2022/08/12 02:25:39;;;;;;;8.25;6.47;;;;;;;25.31;100.00;99805.19;1792826;80;21015;-65
2022/08/12 02:28:06;;;;;;;11.20;6.05;;;;;;;25.30;100.00;99800.77;1789153;80;21255;-65
2022/08/12 02:30:35;;;;;;;11.75;6.10;;;;;;;25.18;100.00;99797.84;1788675;80;21059;-65
2022/08/12 02:33:03;;;;;;;7.33;5.85;;;;;;;25.19;100.00;99803.06;1788765;80;21094;-65
2022/08/12 02:35:34;;;;;;;8.85;6.55;;;;;;;25.18;100.00;99804.89;1788872;80;20976;-63
2022/08/12 02:38:06;;;;;;;7.65;6.20;;;;;;;25.11;100.00;99799.48;1788834;80;21007;-66
2022/08/12 02:40:36;;;;;;;8.98;5.90;;;;;;;25.08;100.00;99795.31;1768691;80;21230;-65
2022/08/12 02:43:20;;;;;;;7.78;5.95;;;;;;;25.01;100.00;99801.80;1739120;82;21064;-65
2022/08/12 02:45:54;;;;;;;7.53;6.50;;;;;;;25.00;100.00;99803.81;1718719;82;21031;-65
2022/08/12 02:48:46;;;;;;;9.98;6.65;;;;;;;25.08;100.00;99799.53;1754813;81;21027;-64
2022/08/12 02:51:18;;;;;;;8.98;6.50;;;;;;;24.99;100.00;99795.14;1740448;81;21035;-65
2022/08/12 02:53:44;;;;;;;9.73;6.58;;;;;;;24.94;100.00;99805.47;1749656;81;21441;-64
2022/08/12 02:56:11;;;;;;;12.18;6.37;;;;;;;24.95;100.00;99800.02;1721806;82;20969;-65
2022/08/12 02:58:38;;;;;;;6.95;6.30;;;;;;;24.93;100.00;99799.62;1726186;82;21500;-67
2022/08/12 03:01:09;;;;;;;10.35;6.35;;;;;;;24.91;100.00;99799.22;1749403;81;21034;-66
2022/08/12 03:03:37;;;;;;;12.40;6.83;;;;;;;24.97;100.00;99800.41;1747446;80;21035;-66
2022/08/12 03:06:18;;;;;;;7.47;6.55;;;;;;;24.94;100.00;99801.24;1733669;80;21239;-67
2022/08/12 03:08:45;;;;;;;10.35;7.00;;;;;;;24.95;100.00;99804.24;1730521;81;21037;-66
2022/08/12 03:11:40;;;;;;;9.00;6.90;;;;;;;24.88;100.00;99790.98;1743036;81;21004;-66
2022/08/12 03:14:13;;;;;;;16.37;6.42;;;;;;;24.91;100.00;99790.77;1751384;81;21157;-66
2022/08/12 03:16:40;;;;;;;;;;;;;;;24.99;100.00;99795.14;1738677;82;21040;-64
2022/08/12 03:19:07;;;;;;;9.15;6.62;;;;;;;24.99;100.00;99790.91;1759545;81;21184;-65
2022/08/12 03:21:36;;;;;;;8.70;6.90;;;;;;;24.97;100.00;99796.78;1759406;81;21058;-66
2022/08/12 03:24:08;;;;;;;8.75;6.30;;;;;;;24.91;100.00;99797.22;1759228;81;32476;-66
2022/08/12 03:26:35;;;;;;;10.48;6.95;;;;;;;25.11;100.00;99788.84;1757689;81;21020;-64
2022/08/12 03:29:05;;;;;;;9.80;6.80;;;;;;;25.02;100.00;99792.12;1734422;82;20986;-66
2022/08/12 03:31:34;;;;;;;10.60;6.08;;;;;;;25.06;100.00;99790.69;1759310;81;21128;-64
2022/08/12 03:34:09;;;;;;;7.17;6.22;;;;;;;25.08;100.00;99796.09;1759107;81;21031;-65
2022/08/12 03:36:38;;;;;;;7.78;6.47;;;;;;;25.10;100.00;99790.84;1754639;81;21030;-65
2022/08/12 03:42:15;;;;;;;9.88;6.30;;;;;;;25.13;100.00;99787.20;1743617;81;21546;-65
2022/08/12 04:01:56;;;;;;;7.58;6.58;;;;;;;25.07;100.00;99824.09;1754429;81;21023;-66
2022/08/12 04:04:32;;;;;;;8.45;6.72;;;;;;;25.13;100.00;99822.42;1769413;80;21092;-65
2022/08/12 04:07:07;;;;;;;9.60;7.72;;;;;;;25.14;100.00;99819.01;1764076;80;20990;-65
2022/08/12 04:09:35;;;;;;;8.58;7.12;;;;;;;25.01;100.00;99823.71;1768169;81;21032;-63
2022/08/12 04:14:49;;;;;;;8.38;7.12;;;;;;;24.98;100.00;99825.14;1765608;81;21144;-64
2022/08/12 04:17:15;;;;;;;8.53;6.70;;;;;;;25.00;100.00;99829.16;1765261;81;21480;-64
2022/08/12 04:19:42;;;;;;;15.08;8.50;;;;;;;25.13;100.00;99820.23;1758101;81;21535;-64
2022/08/12 04:22:11;;;;;;;9.45;6.85;;;;;;;25.12;100.00;99808.75;1757901;81;21039;-65
2022/08/12 04:24:36;;;;;;;10.38;6.90;;;;;;;25.07;100.00;99810.59;1766179;80;21116;-64
2022/08/12 04:27:06;;;;;;;8.60;7.35;;;;;;;25.13;100.00;99808.96;1767484;81;21457;-63
2022/08/12 04:29:33;;;;;;;15.48;7.12;;;;;;;25.08;100.00;99817.22;1761961;81;20983;-64
2022/08/12 04:31:59;;;;;;;8.15;6.95;;;;;;;25.09;100.00;99815.22;1760109;81;21003;-65
2022/08/12 04:34:27;;;;;;;9.15;6.60;;;;;;;25.11;100.00;99812.80;1760106;81;21043;-65
2022/08/12 04:36:53;;;;;;;10.30;7.28;;;;;;;25.07;100.00;99813.41;1760031;81;21495;-65
2022/08/12 04:39:21;;;;;;;12.23;7.67;;;;;;;25.15;100.00;99811.55;1760089;81;21488;-64
2022/08/12 04:41:52;;;;;;;13.20;6.85;;;;;;;25.15;100.00;99810.73;1760107;81;21594;-65
2022/08/12 04:44:15;;;;;;;7.90;6.12;;;;;;;25.11;100.00;99814.98;1759017;81;20987;-65
2022/08/12 04:46:43;;;;;;;8.23;7.17;;;;;;;25.23;100.00;99818.55;1760051;81;21007;-65
2022/08/12 04:49:09;;;;;;;8.08;7.28;;;;;;;25.13;100.00;99822.42;1760262;81;21107;-65
2022/08/12 04:51:36;;;;;;;11.43;6.83;;;;;;;25.15;100.00;99827.05;1759774;81;21003;-66
2022/08/12 04:54:03;;;;;;;12.33;7.65;;;;;;;25.12;100.00;99822.84;1760354;81;21051;-64
2022/08/12 04:56:31;;;;;;;10.85;7.37;;;;;;;25.17;100.00;99816.77;1759922;81;20988;-65
2022/08/12 04:58:58;;;;;;;10.90;7.00;;;;;;;25.18;100.00;99813.35;1759792;81;21039;-65
2022/08/12 05:01:32;;;;;;;9.05;7.15;;;;;;;25.19;100.00;99814.34;1760303;81;21511;-64
2022/08/12 05:03:56;;;;;;;9.25;6.78;;;;;;;25.27;100.00;99809.44;1755609;80;21066;-66
2022/08/12 05:06:25;;;;;;;8.53;7.47;;;;;;;25.30;100.00;99815.65;1758008;78;21557;-64
2022/08/12 05:09:00;;;;;;;10.70;7.22;;;;;;;25.28;100.00;99812.47;1758131;81;21019;-65
2022/08/12 05:11:28;;;;;;;10.80;7.70;;;;;;;25.40;100.00;99804.11;1758223;81;21331;-65
2022/08/12 05:13:59;;;;;;;14.53;7.20;;;;;;;25.43;100.00;99805.28;1758234;81;21108;-64
2022/08/12 05:16:26;;;;;;;10.60;7.17;;;;;;;25.39;100.00;99801.89;1758024;81;21035;-65
2022/08/12 05:18:53;;;;;;;12.00;7.80;;;;;;;25.36;100.00;99799.10;1757990;81;20983;-64
2022/08/12 05:21:19;;;;;;;12.55;8.95;;;;;;;25.48;100.00;99806.25;1757985;81;21514;-65
2022/08/12 05:23:46;;;;;;;9.50;7.47;;;;;;;25.58;100.00;99803.95;1758213;81;21011;-66
2022/08/12 05:26:13;;;;;;;11.30;7.05;;;;;;;25.60;100.00;99803.52;1758165;81;21549;-65
2022/08/12 05:28:40;;;;;;;9.88;8.15;;;;;;;25.57;100.00;99794.50;1757970;81;21504;-65
2022/08/12 05:31:06;;;;;;;14.18;7.58;;;;;;;25.53;100.00;99788.28;1758089;81;21558;-64
2022/08/12 05:33:39;;;;;;;10.05;7.70;;;;;;;25.59;100.00;99788.61;1758137;81;20992;-65
2022/08/12 05:36:13;;;;;;;10.30;7.35;;;;;;;25.58;100.00;99800.31;1758104;81;21050;-65
2022/08/12 05:38:55;;;;;;;;;;;;;;;25.66;100.00;99808.92;1761149;81;21495;-65
2022/08/12 05:41:30;;;;;;;10.78;7.08;;;;;;;25.82;100.00;99800.52;1758007;81;20174;-65
2022/08/12 05:44:02;;;;;;;10.48;8.58;;;;;;;25.65;100.00;99801.70;1757890;81;21038;-64
2022/08/12 05:46:30;;;;;;;11.38;7.78;;;;;;;25.58;100.00;99796.08;1758004;81;21058;-65
2022/08/12 05:48:59;;;;;;;9.05;7.45;;;;;;;25.63;100.00;99798.45;1758315;81;21051;-65
2022/08/12 05:51:29;;;;;;;12.53;9.88;;;;;;;25.69;100.00;99801.03;1757828;81;21757;-66
2022/08/12 05:53:57;;;;;;;13.53;8.30;;;;;;;25.72;100.00;99808.69;1758044;81;21019;-65
2022/08/12 05:56:29;;;;;;;16.17;7.95;;;;;;;25.78;100.00;99803.37;1758172;81;21055;-65
2022/08/12 05:58:57;;;;;;;13.32;8.50;;;;;;;25.82;100.00;99806.16;1757505;81;21007;-64
2022/08/12 06:01:25;;;;;;;14.13;8.15;;;;;;;25.89;100.00;99801.26;1758424;81;20999;-64
2022/08/12 06:03:51;;;;;;;8.43;7.47;;;;;;;25.98;100.00;99807.02;1757825;81;21763;-65
2022/08/12 06:06:18;;;;;;;12.60;7.75;;;;;;;25.99;100.00;99809.41;1757486;78;21035;-64
2022/08/12 06:08:52;;;;;;;11.43;7.58;;;;;;;26.03;100.00;99815.63;1758048;81;21027;-65
2022/08/12 06:11:22;;;;;;;13.40;8.05;;;;;;;26.06;100.00;99818.41;1757910;81;21527;-65
2022/08/12 06:13:57;;;;;;;13.00;7.67;;;;;;;26.08;100.00;99823.03;1757446;81;21615;-65
2022/08/12 06:16:27;;;;;;;11.43;7.47;;;;;;;26.07;100.00;99818.59;1734914;81;21119;-65
2022/08/12 06:18:53;;;;;;;11.48;8.10;;;;;;;26.14;100.00;99820.53;1757743;81;21457;-64
2022/08/12 06:21:22;;;;;;;21.85;8.50;;;;;;;26.21;100.00;99827.51;1757834;81;20999;-65
2022/08/12 06:23:50;;;;;;;19.10;8.75;;;;;;;26.24;100.00;99821.02;1757852;81;21528;-66
2022/08/12 06:26:19;;;;;;;11.48;7.33;;;;;;;26.24;100.00;99815.38;1757860;81;21547;-65
2022/08/12 06:28:49;;;;;;;14.70;8.40;;;;;;;26.22;100.00;99823.45;1757791;81;21495;-65
2022/08/12 06:31:18;;;;;;;14.10;8.23;;;;;;;26.25;100.00;99827.47;1757998;81;21071;-65
2022/08/12 06:33:46;;;;;;;14.38;7.83;;;;;;;26.31;100.00;99813.06;1757655;81;20992;-66
2022/08/12 06:36:17;;;;;;;12.25;8.58;;;;;;;26.29;100.00;99805.63;1757727;81;21004;-67
2022/08/12 06:38:46;;;;;;;16.37;8.45;;;;;;;26.34;100.00;99803.78;1758157;81;21047;-64
2022/08/12 06:43:44;;;;;;;11.18;8.28;;;;;;;26.48;100.00;99800.58;1723554;81;21055;-64
2022/08/12 06:46:12;;;;;;;8.85;7.95;;;;;;;26.49;100.00;99791.68;1757806;81;20980;-66
2022/08/12 06:48:42;;;;;;;9.45;8.33;;;;;;;26.54;100.00;99793.86;1757453;81;21583;-66
2022/08/12 06:51:09;;;;;;;11.63;9.00;;;;;;;26.59;100.00;99797.63;1758046;81;21067;-66
2022/08/12 06:53:35;;;;;;;12.60;8.63;;;;;;;26.62;100.00;99796.77;1757804;81;21776;-66
2022/08/12 06:56:02;;;;;;;11.33;9.33;;;;;;;26.67;100.00;99809.61;1757677;81;21023;-66
2022/08/12 06:58:31;;;;;;;13.10;8.90;;;;;;;26.79;100.00;99806.22;1757717;81;21508;-65
2022/08/12 07:00:58;;;;;;;13.22;9.50;;;;;;;26.67;100.00;99806.78;1757746;81;21554;-65
2022/08/12 07:03:29;;;;;;;16.50;8.90;;;;;;;26.69;100.00;99804.34;1743568;81;21527;-65
2022/08/12 07:06:01;;;;;;;16.50;7.85;;;;;;;26.70;100.00;99798.90;1722289;82;21746;-65
2022/08/12 07:08:29;;;;;;;10.30;8.25;;;;;;;26.67;100.00;99792.06;1728266;83;21477;-64
2022/08/12 07:10:59;;;;;;;16.52;8.80;;;;;;;26.67;100.00;99796.30;1692306;84;21537;-64
2022/08/12 07:13:34;;;;;;;14.03;8.68;;;;;;;26.67;100.00;99800.53;1728205;82;21048;-64
2022/08/12 07:15:57;;;;;;;16.40;8.80;;;;;;;26.65;100.00;99798.73;1692566;84;21061;-64
2022/08/12 07:18:29;;;;;;;10.90;8.53;;;;;;;26.68;100.00;99791.45;1707019;84;21141;-64
2022/08/12 07:20:57;;;;;;;9.43;8.60;;;;;;;26.73;100.00;99791.76;1728251;81;21066;-65
2022/08/12 07:23:25;;;;;;;10.38;8.08;;;;;;;26.82;100.00;99786.19;1718808;83;21113;-66
2022/08/12 07:25:51;;;;;;;10.08;8.93;;;;;;;26.88;100.00;99791.56;1705036;84;21479;-65
2022/08/12 07:28:23;;;;;;;10.20;9.08;;;;;;;26.96;100.00;99783.77;1704949;84;21078;-65
2022/08/12 07:30:52;;;;;;;13.80;9.60;;;;;;;27.04;100.00;99786.69;1705314;84;21110;-64
2022/08/12 07:33:21;;;;;;;12.30;8.50;;;;;;;27.13;100.00;99785.34;1704739;84;21008;-64
2022/08/12 07:35:49;;;;;;;16.02;9.03;;;;;;;27.13;100.00;99783.33;1705123;84;21050;-65
2022/08/12 07:38:32;;;;;;;16.45;8.95;;;;;;;27.37;100.00;99781.92;1728395;82;21039;-64
2022/08/12 07:41:17;;;;;;;10.98;8.28;;;;;;;27.25;100.00;99782.53;1718654;83;21008;-66
2022/08/12 07:43:52;;;;;;;13.43;8.28;;;;;;;27.30;100.00;99784.27;1704984;84;21500;-66
2022/08/12 07:46:27;;;;;;;10.23;8.45;;;;;;;27.34;100.00;99782.19;1704964;84;21053;-64
2022/08/12 07:48:56;;;;;;;10.35;9.23;;;;;;;27.36;100.00;99780.95;1704884;84;21499;-65
2022/08/12 07:51:23;;;;;;;11.22;8.88;;;;;;;27.36;100.00;99769.03;1705168;84;21511;-64
2022/08/12 07:53:50;;;;;;;10.95;9.38;;;;;;;27.43;100.00;99770.93;1728844;81;22078;-65
2022/08/12 07:56:17;;;;;;;10.93;9.73;;;;;;;27.51;100.00;99763.10;1718561;83;21066;-65
2022/08/12 07:58:45;;;;;;;10.50;8.58;;;;;;;27.61;100.00;99764.13;1705071;84;21571;-66
2022/08/12 08:01:17;;;;;;;11.88;8.73;;;;;;;27.76;100.00;99756.20;1705580;84;21092;-65
2022/08/12 08:06:16;;;;;;;14.60;9.15;;;;;;;27.99;100.00;99755.36;1606900;84;21491;-64
2022/08/12 08:08:42;;;;;;;12.93;9.20;;;;;;;28.10;100.00;99752.29;1701414;84;21307;-64
2022/08/12 08:13:53;;;;;;;11.48;8.95;;;;;;;28.18;100.00;99743.82;1695532;84;21028;-65
2022/08/12 08:16:19;;;;;;;11.95;8.90;;;;;;;28.17;100.00;99751.34;1695646;84;20978;-65
2022/08/12 08:18:47;;;;;;;16.67;9.48;;;;;;;28.05;100.00;99760.69;1699986;83;21019;-65
2022/08/12 08:21:14;;;;;;;10.28;8.95;;;;;;;27.99;100.00;99752.53;1701082;84;21100;-65
2022/08/12 08:26:25;;;;;;;11.80;8.85;;;;;;;27.97;100.00;99758.42;1700967;84;21043;-64
2022/08/12 08:28:53;;;;;;;10.32;9.25;;;;;;;28.02;100.00;99762.97;1701424;84;20991;-65
2022/08/12 08:31:20;;;;;;;18.98;10.03;;;;;;;28.06;100.00;99762.27;1701198;84;21008;-65
2022/08/12 08:33:47;;;;;;;19.15;10.60;;;;;;;28.10;100.00;99755.75;1700910;84;21110;-65
2022/08/12 08:36:14;;;;;;;11.05;9.88;;;;;;;28.16;100.00;99746.92;1701263;84;21042;-66
2022/08/12 08:38:43;;;;;;;17.95;9.58;;;;;;;28.21;100.00;99749.84;1701587;84;21078;-65
2022/08/12 08:43:55;;;;;;;14.93;9.98;;;;;;;28.27;100.00;99739.59;1701160;84;21507;-64
2022/08/12 08:46:21;;;;;;;10.48;9.05;;;;;;;28.31;100.00;99738.91;1701349;84;21115;-65
2022/08/12 08:48:48;;;;;;;11.50;9.90;;;;;;;28.38;100.00;99730.30;1701004;84;21098;-64
2022/08/12 08:51:16;;;;;;;12.70;9.90;;;;;;;28.46;100.00;99728.70;1701017;84;21074;-65
2022/08/12 08:53:45;;;;;;;14.50;9.65;;;;;;;28.49;100.00;99727.84;1701153;84;21500;-66
2022/08/12 08:56:11;;;;;;;14.30;8.83;;;;;;;28.62;100.00;99737.25;1700718;84;21039;-66
2022/08/12 08:58:38;;;;;;;12.58;9.45;;;;;;;28.82;100.00;99735.56;1701160;84;21146;-65
2022/08/12 09:01:05;;;;;;;10.32;9.25;;;;;;;29.02;100.00;99739.76;1701100;84;21019;-66
2022/08/12 09:03:33;;;;;;;15.18;9.73;;;;;;;29.22;100.00;99737.46;1701106;84;21480;-67
2022/08/12 09:06:01;;;;;;;15.83;9.35;;;;;;;29.28;100.00;99744.18;1701136;83;21051;-65
2022/08/12 09:08:28;;;;;;;11.53;9.08;;;;;;;29.32;100.00;99746.92;1701105;84;21075;-66
2022/08/12 09:13:26;;;;;;;12.68;9.88;;;;;;;29.40;100.00;99749.75;1701280;84;21493;-66
2022/08/12 09:13:31;;;;;;;13.30;10.08;;;;;;;29.46;100.00;99754.27;1697350;84;20980;-66
2022/08/12 09:16:01;;;;;;;10.85;9.10;;;;;;;29.50;100.00;99760.62;1700886;84;21716;-64
2022/08/12 09:18:30;;;;;;;11.00;9.80;;;;;;;29.59;100.00;99757.97;1700474;84;21059;-65
2022/08/12 09:20:56;;;;;;;12.68;9.23;;;;;;;29.56;100.00;99753.80;1700702;84;21111;-65
2022/08/12 09:23:26;;;;;;;12.55;10.28;;;;;;;29.60;100.00;99745.39;1699085;84;21499;-65
2022/08/12 09:25:53;;;;;;;15.05;9.45;;;;;;;29.72;100.00;99751.59;1697341;84;21559;-64
2022/08/12 09:28:27;;;;;;;14.87;8.88;;;;;;;29.75;100.00;99759.20;1697442;84;21548;-64
2022/08/12 09:30:57;;;;;;;13.62;10.35;;;;;;;29.81;100.00;99765.11;1692702;84;22245;-64
2022/08/12 09:33:32;;;;;;;12.37;9.30;;;;;;;29.86;100.00;99775.30;1688637;83;21070;-64
2022/08/12 09:35:56;;;;;;;11.97;9.20;;;;;;;29.92;100.00;99777.59;1696609;83;22053;-65
2022/08/12 09:38:27;;;;;;;12.82;9.65;;;;;;;29.98;100.00;99778.63;1707110;83;21011;-65
2022/08/12 09:40:57;;;;;;;10.58;9.48;;;;;;;30.03;100.00;99768.75;1699384;84;21047;-66
2022/08/12 09:46:15;;;;;;;15.05;9.18;;;;;;;29.91;100.00;99770.33;1704427;83;21011;-65
2022/08/12 09:48:37;;;;;;;9.93;8.85;;;;;;;29.96;100.00;99769.75;1716101;83;21142;-64
2022/08/12 09:51:07;;;;;;;18.35;9.55;;;;;;;29.98;100.00;99776.59;1700011;83;21101;-65
2022/08/12 09:53:34;;;;;;;14.28;10.20;;;;;;;29.94;100.00;99781.56;1716827;83;21055;-65
2022/08/12 09:56:01;;;;;;;21.05;11.25;;;;;;;29.96;100.00;99782.53;1711024;83;21048;-65
2022/08/12 09:58:30;;;;;;;15.18;10.13;;;;;;;29.92;100.00;99767.05;1709181;83;21090;-65
2022/08/12 10:01:01;;;;;;;16.35;9.70;;;;;;;29.99;100.00;99770.30;1699615;84;22121;-65
2022/08/12 10:03:30;;;;;;;12.40;9.75;;;;;;;29.89;100.00;99781.50;1698725;83;21032;-65
2022/08/12 10:05:58;;;;;;;14.93;10.05;;;;;;;29.89;100.00;99775.82;1707579;81;20989;-64
2022/08/12 10:08:26;;;;;;;14.30;9.35;;;;;;;29.95;100.00;99778.11;1736223;82;20975;-63
2022/08/12 10:13:43;;;;;;;11.40;10.20;;;;;;;29.89;100.00;99790.02;1760717;80;21602;-64
2022/08/12 10:16:27;;;;;;;15.53;10.13;;;;;;;29.82;100.00;99788.01;1766719;80;20987;-64
2022/08/12 10:19:02;;;;;;;12.18;10.03;;;;;;;29.79;100.00;99780.39;1738839;81;21802;-65
2022/08/12 10:21:40;;;;;;;15.98;9.90;;;;;;;29.78;100.00;99788.72;1770531;80;21508;-66
2022/08/12 10:24:22;;;;;;;16.95;10.55;;;;;;;29.72;100.00;99789.91;1749863;81;21066;-66
2022/08/12 10:29:46;;;;;;;13.05;10.23;;;;;;;29.46;100.00;99791.16;1730032;83;20983;-72
2022/08/12 10:32:19;;;;;;;24.37;10.68;;;;;;;29.37;100.00;99800.28;1729244;83;21043;-71
2022/08/12 10:34:44;;;;;;;;;;;;;;;29.49;100.00;99800.19;1731802;83;21106;-73
2022/08/12 10:37:37;;;;;;;13.03;9.80;;;;;;;29.50;100.00;99801.77;1735777;80;20257;-70
2022/08/12 10:40:06;;;;;;;12.45;10.23;;;;;;;29.48;100.00;99805.70;1804298;78;21124;-69
2022/08/12 10:45:24;;;;;;;14.18;9.85;;;;;;;29.38;100.00;99797.00;1821157;78;21479;-72
2022/08/12 10:47:52;;;;;;;13.55;10.20;;;;;;;29.34;100.00;99806.85;1825807;78;21041;-71
2022/08/12 10:50:21;;;;;;;18.42;11.00;;;;;;;29.30;100.00;99804.10;1820594;78;21020;-71
2022/08/12 10:52:48;;;;;;;13.30;10.13;;;;;;;29.23;100.00;99800.02;1819034;78;21724;-71
2022/08/12 10:55:18;;;;;;;15.00;10.20;;;;;;;29.31;100.00;99807.10;1818970;77;21003;-73
2022/08/12 10:57:46;;;;;;;14.73;10.03;;;;;;;29.31;100.00;99792.92;1789967;78;21030;-75
2022/08/12 11:00:14;;;;;;;13.13;9.95;;;;;;;29.33;100.00;99796.73;1820368;78;20990;-76
2022/08/12 11:02:53;;;;;;;16.93;9.65;;;;;;;29.25;100.00;99799.77;1792324;77;21594;-72
2022/08/12 11:05:20;;;;;;;17.57;10.13;;;;;;;29.33;100.00;99803.82;1788501;78;21640;-73
2022/08/12 11:07:49;;;;;;;17.17;10.55;;;;;;;29.33;100.00;99798.95;1838543;78;20989;-71
2022/08/12 11:10:14;;;;;;;14.95;9.85;;;;;;;29.39;100.00;99800.00;1818389;78;21303;-73
2022/08/12 11:12:46;;;;;;;17.85;11.20;;;;;;;29.42;100.00;99791.85;1815290;78;22349;-72
2022/08/12 11:15:19;;;;;;;17.23;10.72;;;;;;;29.43;100.00;99800.56;1825577;78;20985;-69
2022/08/12 11:17:48;;;;;;;12.85;10.00;;;;;;;29.53;100.00;99799.48;1828072;78;21235;-71
2022/08/12 11:20:15;;;;;;;18.00;9.73;;;;;;;29.50;100.00;99788.39;1790233;80;21008;-71
2022/08/12 11:22:43;;;;;;;20.65;10.40;;;;;;;29.39;100.00;99777.31;1801737;78;21076;-72
2022/08/12 11:25:10;;;;;;;14.75;9.98;;;;;;;29.47;100.00;99762.33;1821100;78;21518;-72
2022/08/12 11:27:36;;;;;;;12.70;10.50;;;;;;;29.37;100.00;99754.29;1818737;78;21508;-70
2022/08/12 11:30:05;;;;;;;17.92;11.03;;;;;;;29.43;100.00;99752.33;1829912;78;21184;-73
2022/08/12 11:32:32;;;;;;;21.90;10.60;;;;;;;29.27;100.00;99751.10;1839362;78;21528;-72
2022/08/12 11:35:00;;;;;;;11.45;9.48;;;;;;;29.25;100.00;99757.22;1825840;78;21477;-72
2022/08/12 11:37:32;;;;;;;12.07;9.23;;;;;;;29.24;100.00;99762.70;1823970;77;21035;-70
2022/08/12 11:40:04;;;;;;;13.50;9.53;;;;;;;29.23;100.00;99774.49;1800815;78;21235;-72
2022/08/12 11:42:31;;;;;;;13.25;10.43;;;;;;;29.20;100.00;99773.36;1821023;78;21184;-71
2022/08/12 11:44:57;;;;;;;11.35;9.35;;;;;;;29.19;100.00;99776.64;1839435;78;21036;-73
2022/08/12 11:47:24;;;;;;;18.73;10.43;;;;;;;29.18;100.00;99775.03;1824554;77;21575;-72
2022/08/12 11:49:56;;;;;;;20.85;9.65;;;;;;;29.19;100.00;99779.47;1815331;78;21063;-73
2022/08/12 11:52:24;;;;;;;19.52;10.43;;;;;;;29.21;100.00;99774.94;1818790;78;21084;-72
2022/08/12 11:54:52;;;;;;;19.52;10.75;;;;;;;29.23;100.00;99771.05;1828365;78;21017;-72
2022/08/12 11:57:20;;;;;;;15.88;11.03;;;;;;;29.03;100.00;99776.20;1826651;78;21004;-74
2022/08/12 11:59:46;;;;;;;19.00;11.18;;;;;;;29.14;100.00;99769.44;1826572;78;21032;-72
2022/08/12 12:02:14;;;;;;;12.20;10.63;;;;;;;29.09;100.00;99778.50;1826704;78;21717;-69
2022/08/12 12:04:46;;;;;;;14.63;10.45;;;;;;;29.06;100.00;99786.45;1822241;78;21023;-69
2022/08/12 12:07:22;;;;;;;17.47;11.03;;;;;;;29.11;100.00;99790.18;1789720;80;21247;-70
2022/08/12 12:09:48;;;;;;;17.57;10.25;;;;;;;29.04;100.00;99786.29;1794099;79;21071;-72
2022/08/12 12:12:15;;;;;;;14.85;10.30;;;;;;;29.12;100.00;99771.30;1802698;79;21031;-72
2022/08/12 12:14:41;;;;;;;11.73;9.45;;;;;;;29.12;100.00;99786.13;1810867;78;21031;-73
2022/08/12 12:17:11;;;;;;;12.85;11.08;;;;;;;29.11;100.00;99787.34;1815107;78;21003;-75
2022/08/12 12:19:39;;;;;;;21.27;11.48;;;;;;;29.04;100.00;99786.90;1782952;79;21083;-75
2022/08/12 12:22:08;;;;;;;21.82;10.45;;;;;;;29.01;100.00;99783.53;1821662;78;21003;-74
2022/08/12 12:24:37;;;;;;;14.78;10.60;;;;;;;29.01;100.00;99783.53;1823093;78;21500;-74
2022/08/12 12:27:14;;;;;;;18.02;10.58;;;;;;;28.96;100.00;99786.87;1815339;78;21040;-72
2022/08/12 12:29:44;;;;;;;16.90;10.15;;;;;;;28.97;100.00;99786.42;1780980;79;21043;-73
2022/08/12 12:32:14;;;;;;;17.92;11.75;;;;;;;28.96;100.00;99784.03;1787643;79;21100;-73
2022/08/12 12:34:43;;;;;;;20.60;11.57;;;;;;;28.96;100.00;99788.28;1797700;79;21031;-71
2022/08/12 12:37:13;;;;;;;18.07;11.60;;;;;;;28.97;100.00;99786.42;1801680;79;21613;-72
2022/08/12 12:39:39;;;;;;;14.03;10.82;;;;;;;29.00;100.00;99781.31;1833382;77;20980;-73
2022/08/12 12:42:09;;;;;;;16.60;11.50;;;;;;;29.03;100.00;99781.88;1839269;77;21039;-71
2022/08/12 12:44:38;;;;;;;14.43;11.05;;;;;;;29.09;100.00;99780.70;1835384;77;21098;-75
2022/08/12 12:47:07;;;;;;;14.47;11.95;;;;;;;29.08;100.00;99781.95;1837151;77;21027;-72
2022/08/12 12:49:40;;;;;;;19.32;10.72;;;;;;;29.19;100.00;99769.55;1828870;77;21058;-73
2022/08/12 12:52:10;;;;;;;14.23;10.60;;;;;;;29.22;100.00;99776.55;1838633;77;21032;-74
2022/08/12 12:54:37;;;;;;;19.12;10.95;;;;;;;29.23;100.00;99771.66;1839239;77;20995;-69
2022/08/12 12:57:13;;;;;;;14.60;10.93;;;;;;;29.32;100.00;99766.78;1829639;77;21102;-74
2022/08/12 13:00:13;;;;;;;12.88;10.63;;;;;;;29.42;100.00;99766.32;1822735;77;21000;-73
2022/08/12 13:02:08;;;;;;;15.35;10.60;;;;;;;29.47;100.00;99764.36;1833950;77;21015;-74
2022/08/12 13:04:36;;;;;;;14.95;11.45;;;;;;;29.51;100.00;99762.24;1826173;78;21070;-73
2022/08/12 13:07:05;;;;;;;33.60;11.53;;;;;;;29.56;100.00;99763.73;1798491;78;21033;-72
2022/08/12 13:09:33;;;;;;;15.15;11.93;;;;;;;29.59;100.00;99762.22;1841052;77;21178;-72
2022/08/12 13:12:00;;;;;;;17.80;11.00;;;;;;;29.64;100.00;99767.38;1859357;77;20999;-71
2022/08/12 13:14:32;;;;;;;16.15;11.05;;;;;;;29.63;100.00;99766.41;1858818;76;21449;-74
2022/08/12 13:17:01;;;;;;;14.18;10.85;;;;;;;29.64;100.00;99768.80;1830295;77;21060;-74
2022/08/12 13:19:28;;;;;;;13.88;10.32;;;;;;;29.61;100.00;99772.54;1849465;77;21004;-72